createdAt,value
2018-03-04T00:00:48.503Z,0.85
2018-03-04T00:03:16.844Z,0.95
2018-03-04T00:05:45.197Z,1.06
2018-03-04T00:08:13.556Z,1.13
2018-03-04T00:10:41.872Z,1.21
2018-03-04T00:13:10.338Z,1.28
2018-03-04T00:15:38.638Z,1.36
2018-03-04T00:18:06.970Z,1.41
2018-03-04T00:20:35.299Z,1.45
2018-03-04T00:23:03.608Z,1.49
2018-03-04T00:25:31.923Z,1.52
2018-03-04T00:28:00.247Z,1.56
2018-03-04T00:30:28.581Z,1.55
2018-03-04T00:32:56.923Z,1.54
2018-03-04T00:35:25.364Z,1.56
2018-03-04T00:37:53.667Z,1.53
2018-03-04T00:40:22.078Z,1.51
2018-03-04T00:42:50.408Z,1.45
2018-03-04T00:45:18.767Z,1.41
2018-03-04T00:47:47.113Z,1.37
2018-03-04T00:50:15.460Z,1.32
2018-03-04T00:52:43.784Z,1.29
2018-03-04T00:55:12.880Z,1.26
2018-03-04T00:57:42.679Z,1.23
2018-03-04T01:00:11.139Z,1.22
2018-03-04T01:02:39.451Z,1.21
2018-03-04T01:05:08.586Z,1.19
2018-03-04T01:07:36.923Z,1.21
2018-03-04T01:10:05.255Z,1.21
2018-03-04T01:12:33.593Z,1.20
2018-03-04T01:15:02.696Z,1.22
2018-03-04T01:17:31.777Z,1.25
2018-03-04T01:20:00.118Z,1.28
2018-03-04T01:22:28.670Z,1.35
2018-03-04T01:24:57.811Z,1.41
2018-03-04T01:27:26.143Z,1.50
2018-03-04T01:29:54.469Z,1.61
2018-03-04T01:32:22.984Z,1.69
2018-03-04T01:34:51.303Z,1.80
2018-03-04T01:37:20.375Z,1.90
2018-03-04T01:39:48.753Z,1.97
2018-03-04T01:42:17.073Z,2.01
2018-03-04T01:44:46.280Z,2.03
2018-03-04T01:47:14.579Z,2.05
2018-03-04T01:49:42.901Z,2.07
2018-03-04T01:52:11.215Z,2.10
2018-03-04T01:54:40.329Z,2.08
2018-03-04T01:57:08.658Z,2.04
2018-03-04T01:59:36.983Z,1.99
2018-03-04T02:02:05.327Z,1.90
2018-03-04T02:04:33.637Z,1.81
2018-03-04T02:07:01.997Z,1.76
2018-03-04T02:09:31.117Z,1.73
2018-03-04T02:12:00.191Z,1.70
2018-03-04T02:14:28.495Z,1.70
2018-03-04T02:16:57.574Z,1.76
2018-03-04T02:19:26.647Z,1.85
2018-03-04T02:21:55.245Z,1.95
2018-03-04T02:24:23.547Z,2.05
2018-03-04T02:26:52.655Z,2.14
2018-03-04T02:29:20.987Z,2.21
2018-03-04T02:31:49.308Z,2.27
2018-03-04T02:34:18.878Z,2.32
2018-03-04T02:36:47.206Z,2.38
2018-03-04T02:39:16.294Z,2.43
2018-03-04T02:41:45.813Z,2.47
2018-03-04T02:44:14.889Z,2.52
2018-03-04T02:46:43.199Z,2.55
2018-03-04T02:49:11.529Z,2.57
2018-03-04T02:51:39.852Z,2.58
2018-03-04T02:54:08.927Z,2.58
2018-03-04T02:56:37.251Z,2.58
2018-03-04T02:59:05.589Z,2.58
2018-03-04T03:01:34.696Z,2.60
2018-03-04T03:04:03.932Z,2.60
2018-03-04T03:06:32.236Z,2.57
2018-03-04T03:09:00.589Z,2.56
2018-03-04T03:11:28.899Z,2.58
2018-03-04T03:13:58.285Z,2.59
2018-03-04T03:16:26.713Z,2.61
2018-03-04T03:18:55.792Z,2.59
2018-03-04T03:21:24.375Z,2.58
2018-03-04T03:23:52.683Z,2.57
2018-03-04T03:26:21.015Z,2.52
2018-03-04T03:28:49.328Z,2.41
2018-03-04T03:31:17.666Z,2.24
2018-03-04T03:33:46.001Z,2.03
2018-03-04T03:36:14.339Z,1.86
2018-03-04T03:38:42.655Z,1.68
2018-03-04T03:41:11.001Z,1.54
2018-03-04T03:43:39.437Z,1.43
2018-03-04T03:46:09.365Z,1.38
2018-03-04T03:48:38.449Z,1.37
2018-03-04T03:51:07.561Z,1.35
2018-03-04T03:53:36.669Z,1.32
2018-03-04T03:56:04.984Z,1.33
2018-03-04T03:58:33.318Z,1.39
2018-03-04T04:01:01.647Z,1.47
2018-03-04T04:03:29.982Z,1.53
2018-03-04T04:05:59.063Z,1.56
2018-03-04T04:08:28.183Z,1.56
2018-03-04T04:10:56.501Z,1.58
2018-03-04T04:13:24.799Z,1.58
2018-03-04T04:15:53.132Z,1.60
2018-03-04T04:18:21.461Z,1.62
2018-03-04T04:20:49.785Z,1.66
2018-03-04T04:23:18.106Z,1.74
2018-03-04T04:25:46.458Z,1.80
2018-03-04T04:28:14.775Z,1.84
2018-03-04T04:30:43.099Z,1.88
2018-03-04T04:33:12.178Z,1.92
2018-03-04T04:35:40.493Z,1.99
2018-03-04T04:38:08.809Z,2.05
2018-03-04T04:40:37.154Z,2.08
2018-03-04T04:43:05.477Z,2.09
2018-03-04T04:45:33.815Z,2.04
2018-03-04T04:48:02.197Z,2.06
2018-03-04T04:50:30.537Z,2.02
2018-03-04T04:52:58.867Z,1.98
2018-03-04T04:55:27.197Z,1.92
2018-03-04T04:57:55.601Z,1.84
2018-03-04T05:00:24.700Z,1.77
2018-03-04T05:02:53.774Z,1.73
2018-03-04T05:05:22.119Z,1.70
2018-03-04T05:07:50.562Z,1.73
2018-03-04T05:10:20.448Z,1.80
2018-03-04T05:12:48.920Z,1.92
2018-03-04T05:15:17.281Z,2.03
2018-03-04T05:17:45.601Z,2.09
2018-03-04T05:20:13.909Z,2.12
2018-03-04T05:22:43.055Z,2.13
2018-03-04T05:25:11.406Z,2.19
2018-03-04T05:27:39.700Z,2.29
2018-03-04T05:30:08.043Z,2.40
2018-03-04T05:32:37.130Z,2.51
2018-03-04T05:35:05.461Z,2.62
2018-03-04T05:37:33.774Z,2.69
2018-03-04T05:40:02.105Z,2.78
2018-03-04T05:42:30.446Z,2.86
2018-03-04T05:44:58.919Z,2.88
2018-03-04T05:47:27.475Z,2.84
2018-03-04T05:49:55.784Z,2.68
2018-03-04T05:52:24.109Z,2.49
2018-03-04T05:54:52.457Z,2.32
2018-03-04T05:57:20.799Z,2.11
2018-03-04T05:59:49.146Z,1.93
2018-03-04T06:02:17.508Z,1.79
2018-03-04T06:04:46.610Z,1.68
2018-03-04T06:07:14.920Z,1.60
2018-03-04T06:09:43.246Z,1.53
2018-03-04T06:12:11.575Z,1.48
2018-03-04T06:14:39.929Z,1.48
2018-03-04T06:17:08.258Z,1.47
2018-03-04T06:19:36.600Z,1.42
2018-03-04T06:22:05.718Z,1.37
2018-03-04T06:24:34.106Z,1.35
2018-03-04T06:27:02.400Z,1.37
2018-03-04T06:29:30.751Z,1.42
2018-03-04T06:31:59.844Z,1.49
2018-03-04T06:34:28.208Z,1.63
2018-03-04T06:36:57.318Z,1.86
2018-03-04T06:39:26.509Z,2.11
2018-03-04T06:41:54.863Z,2.32
2018-03-04T06:44:27.196Z,2.52
2018-03-04T06:46:55.530Z,2.70
2018-03-04T06:49:23.857Z,2.86
2018-03-04T06:51:52.223Z,2.99
2018-03-04T06:54:21.344Z,3.10
2018-03-04T06:56:49.672Z,3.19
2018-03-04T06:59:18.781Z,3.25
2018-03-04T07:01:47.114Z,3.33
2018-03-04T07:04:15.472Z,3.43
2018-03-04T07:06:44.534Z,3.56
2018-03-04T07:09:12.905Z,3.64
2018-03-04T07:11:41.291Z,3.71
2018-03-04T07:14:09.642Z,3.82
2018-03-04T07:16:38.035Z,3.95
2018-03-04T07:19:06.347Z,4.07
2018-03-04T07:21:34.656Z,4.13
2018-03-04T07:24:03.732Z,4.19
2018-03-04T07:26:32.892Z,4.26
2018-03-04T07:29:01.207Z,4.42
2018-03-04T07:31:29.576Z,4.60
2018-03-04T07:33:57.906Z,4.77
2018-03-04T07:36:26.307Z,4.97
2018-03-04T07:38:54.632Z,5.17
2018-03-04T07:41:22.948Z,5.42
2018-03-04T07:43:52.030Z,5.59
2018-03-04T07:46:21.102Z,5.63
2018-03-04T07:48:49.418Z,5.63
2018-03-04T07:51:18.511Z,5.66
2018-03-04T07:53:47.588Z,5.70
2018-03-04T07:56:15.914Z,5.83
2018-03-04T07:58:45.064Z,6.08
2018-03-04T08:01:13.507Z,6.31
2018-03-04T08:03:43.477Z,6.57
2018-03-04T08:06:11.808Z,6.80
2018-03-04T08:08:40.266Z,6.96
2018-03-04T08:11:09.341Z,7.18
2018-03-04T08:13:37.677Z,7.42
2018-03-04T08:16:06.007Z,7.63
2018-03-04T08:18:34.368Z,7.78
2018-03-04T08:21:02.662Z,7.88
2018-03-04T08:23:31.749Z,7.99
2018-03-04T08:26:17.772Z,8.12
2018-03-04T08:28:46.070Z,8.24
2018-03-04T08:31:14.402Z,8.34
2018-03-04T08:33:42.739Z,8.54
2018-03-04T08:36:11.167Z,8.81
2018-03-04T08:38:40.296Z,9.04
2018-03-04T08:41:08.617Z,9.21
2018-03-04T08:43:36.918Z,9.44
2018-03-04T08:46:05.232Z,9.67
2018-03-04T08:48:33.539Z,9.88
2018-03-04T08:51:03.158Z,10.06
2018-03-04T08:53:31.467Z,10.25
2018-03-04T08:56:00.820Z,10.42
2018-03-04T08:58:29.219Z,10.60
2018-03-04T09:00:57.532Z,10.89
2018-03-04T09:03:25.913Z,11.15
2018-03-04T09:05:54.229Z,11.44
2018-03-04T09:08:23.310Z,11.71
2018-03-04T09:10:52.434Z,11.87
2018-03-04T09:13:21.522Z,11.81
2018-03-04T09:15:50.650Z,11.72
2018-03-04T09:18:19.154Z,11.47
2018-03-04T09:20:47.516Z,11.22
2018-03-04T09:23:15.829Z,10.99
2018-03-04T09:25:44.160Z,10.78
2018-03-04T09:28:13.358Z,10.56
2018-03-04T09:30:42.446Z,10.42
2018-03-04T09:33:10.773Z,10.30
2018-03-04T09:35:39.092Z,10.24
2018-03-04T09:38:08.167Z,10.24
2018-03-04T09:40:36.505Z,10.26
2018-03-04T09:43:04.830Z,10.29
2018-03-04T09:45:33.197Z,10.21
2018-03-04T09:48:01.536Z,10.22
2018-03-04T09:50:30.689Z,10.32
2018-03-04T09:52:59.177Z,10.43
2018-03-04T09:55:28.300Z,10.50
2018-03-04T09:57:56.636Z,10.63
2018-03-04T10:00:25.760Z,10.72
2018-03-04T10:02:54.055Z,10.81
2018-03-04T10:05:23.113Z,10.89
2018-03-04T10:08:00.894Z,10.94
2018-03-04T10:10:29.376Z,11.04
2018-03-04T10:12:57.684Z,11.16
2018-03-04T10:15:26.002Z,11.28
2018-03-04T10:17:55.151Z,11.34
2018-03-04T10:20:23.444Z,11.41
2018-03-04T10:22:51.764Z,11.51
2018-03-04T10:25:20.859Z,11.66
2018-03-04T10:27:50.701Z,11.76
2018-03-04T10:30:19.040Z,11.90
2018-03-04T10:32:47.354Z,12.03
2018-03-04T10:35:16.408Z,12.14
2018-03-04T10:37:44.725Z,12.32
2018-03-04T10:40:13.060Z,12.48
2018-03-04T10:42:41.372Z,12.64
2018-03-04T10:45:10.454Z,12.77
2018-03-04T10:47:38.770Z,12.93
2018-03-04T10:50:07.130Z,13.09
2018-03-04T10:52:35.576Z,13.25
2018-03-04T10:55:04.290Z,13.31
2018-03-04T10:57:32.668Z,13.44
2018-03-04T11:00:01.022Z,13.69
2018-03-04T11:02:34.986Z,13.89
2018-03-04T11:05:03.314Z,14.19
2018-03-04T11:07:31.622Z,14.52
2018-03-04T11:10:00.032Z,15.01
2018-03-04T11:12:28.363Z,15.20
2018-03-04T11:14:56.665Z,15.44
2018-03-04T11:17:25.034Z,15.87
2018-03-04T11:19:53.483Z,16.15
2018-03-04T11:22:21.803Z,16.40
2018-03-04T11:24:50.118Z,16.68
2018-03-04T11:27:18.427Z,16.77
2018-03-04T11:29:46.790Z,16.87
2018-03-04T11:32:15.112Z,17.11
2018-03-04T11:34:43.444Z,17.23
2018-03-04T11:37:11.794Z,17.59
2018-03-04T11:39:40.172Z,17.84
2018-03-04T11:42:08.518Z,17.90
2018-03-04T11:44:37.613Z,18.12
2018-03-04T11:47:07.339Z,18.50
2018-03-04T11:49:35.664Z,18.89
2018-03-04T11:52:03.996Z,19.01
2018-03-04T11:54:32.325Z,19.09
2018-03-04T11:57:00.652Z,19.25
2018-03-04T11:59:29.766Z,19.80
2018-03-04T12:01:58.210Z,20.39
2018-03-04T12:04:26.543Z,20.46
2018-03-04T12:06:54.883Z,20.25
2018-03-04T12:09:23.223Z,20.23
2018-03-04T12:11:51.580Z,20.29
2018-03-04T12:14:19.900Z,20.30
2018-03-04T12:16:48.222Z,20.52
2018-03-04T12:19:17.324Z,20.80
2018-03-04T12:21:46.399Z,21.11
2018-03-04T12:24:15.685Z,21.36
2018-03-04T12:26:43.990Z,21.64
2018-03-04T12:29:13.085Z,21.85
2018-03-04T12:31:43.008Z,22.09
2018-03-04T12:34:12.144Z,22.33
2018-03-04T12:36:40.499Z,22.71
2018-03-04T12:39:08.825Z,22.99
2018-03-04T12:41:37.165Z,23.34
2018-03-04T12:44:06.261Z,23.71
2018-03-04T12:46:35.364Z,24.14
2018-03-04T12:49:03.715Z,24.45
2018-03-04T12:51:33.588Z,24.69
2018-03-04T12:54:01.911Z,24.99
2018-03-04T12:56:31.005Z,25.22
2018-03-04T12:58:59.322Z,25.15
2018-03-04T13:01:28.405Z,25.12
2018-03-04T13:03:57.589Z,24.93
2018-03-04T13:06:25.931Z,24.55
2018-03-04T13:08:54.235Z,24.01
2018-03-04T13:11:22.539Z,23.51
2018-03-04T13:13:51.632Z,23.40
2018-03-04T13:16:21.597Z,23.77
2018-03-04T13:18:49.936Z,24.64
2018-03-04T13:21:18.263Z,25.76
2018-03-04T13:23:46.583Z,26.78
2018-03-04T13:26:14.899Z,27.39
2018-03-04T13:28:44.007Z,27.49
2018-03-04T13:31:12.415Z,27.47
2018-03-04T13:33:41.379Z,27.38
2018-03-04T13:36:09.714Z,27.15
2018-03-04T13:38:38.041Z,26.83
2018-03-04T13:41:07.140Z,26.63
2018-03-04T13:43:36.226Z,26.31
2018-03-04T13:46:04.590Z,26.05
2018-03-04T13:48:32.919Z,26.00
2018-03-04T13:51:01.245Z,25.72
2018-03-04T13:53:29.567Z,25.80
2018-03-04T13:55:58.665Z,25.93
2018-03-04T13:58:27.765Z,25.80
2018-03-04T14:00:56.852Z,25.82
2018-03-04T14:03:25.259Z,25.82
2018-03-04T14:05:53.589Z,25.67
2018-03-04T14:08:21.945Z,25.34
2018-03-04T14:10:50.336Z,24.87
2018-03-04T14:13:18.661Z,24.27
2018-03-04T14:15:47.720Z,23.86
2018-03-04T14:18:16.046Z,23.49
2018-03-04T14:20:45.137Z,23.10
2018-03-04T14:23:14.275Z,23.13
2018-03-04T14:25:42.761Z,23.24
2018-03-04T14:28:11.105Z,23.33
2018-03-04T14:30:39.433Z,23.38
2018-03-04T14:33:07.957Z,23.25
2018-03-04T14:35:36.282Z,22.91
2018-03-04T14:38:04.597Z,22.62
2018-03-04T14:40:32.921Z,22.38
2018-03-04T14:43:02.010Z,22.03
2018-03-04T14:45:30.336Z,21.76
2018-03-04T14:48:04.979Z,21.61
2018-03-04T14:50:34.166Z,21.35
2018-03-04T14:53:05.661Z,21.03
2018-03-04T14:55:34.060Z,20.72
2018-03-04T14:58:05.205Z,20.38
2018-03-04T15:00:34.837Z,19.99
2018-03-04T15:03:03.144Z,19.75
2018-03-04T15:05:31.559Z,19.66
2018-03-04T15:07:59.911Z,19.57
2018-03-04T15:10:28.855Z,19.47
2018-03-04T15:12:57.213Z,19.35
2018-03-04T15:15:25.636Z,19.21
2018-03-04T15:17:53.961Z,19.03
2018-03-04T15:20:22.265Z,18.82
2018-03-04T15:22:50.588Z,18.59
2018-03-04T15:25:18.894Z,18.47
2018-03-04T15:27:47.234Z,18.37
2018-03-04T15:30:15.579Z,18.14
2018-03-04T15:32:43.883Z,17.91
2018-03-04T15:35:13.009Z,17.66
2018-03-04T15:37:41.331Z,17.42
2018-03-04T15:40:09.643Z,17.19
2018-03-04T15:42:38.726Z,17.01
2018-03-04T15:45:11.166Z,16.82
2018-03-04T15:47:42.399Z,16.61
2018-03-04T15:50:13.795Z,16.45
2018-03-04T15:52:45.862Z,16.32
2018-03-04T15:55:21.099Z,16.17
2018-03-04T15:57:51.207Z,15.94
2018-03-04T16:00:23.074Z,15.67
2018-03-04T16:02:55.504Z,15.45
2018-03-04T16:05:25.145Z,15.27
2018-03-04T16:07:55.115Z,15.09
2018-03-04T16:10:25.703Z,14.93
2018-03-04T16:12:55.365Z,14.76
2018-03-04T16:15:28.337Z,14.63
2018-03-04T16:17:57.005Z,14.48
2018-03-04T16:20:26.751Z,14.31
2018-03-04T16:22:59.120Z,14.18
2018-03-04T16:25:33.427Z,14.05
2018-03-04T16:28:04.865Z,13.94
2018-03-04T16:30:34.921Z,13.82
2018-03-04T16:33:04.637Z,13.72
2018-03-04T16:35:33.727Z,13.64
2018-03-04T16:38:02.079Z,13.56
2018-03-04T16:40:30.556Z,13.43
2018-03-04T16:42:58.864Z,13.31
2018-03-04T16:45:29.557Z,13.19
2018-03-04T16:47:58.323Z,13.05
2018-03-04T16:50:26.671Z,12.93
2018-03-04T16:52:55.443Z,12.82
2018-03-04T16:55:25.950Z,12.71
2018-03-04T16:57:57.545Z,12.64
2018-03-04T17:00:28.280Z,12.55
2018-03-04T17:02:56.622Z,12.45
2018-03-04T17:05:25.003Z,12.38
2018-03-04T17:07:54.103Z,12.28
2018-03-04T17:10:22.488Z,12.13
2018-03-04T17:12:51.687Z,11.99
2018-03-04T17:15:20.728Z,11.86
2018-03-04T17:17:49.066Z,11.71
2018-03-04T17:20:17.384Z,11.58
2018-03-04T17:22:45.708Z,11.56
2018-03-04T17:25:14.495Z,11.42
2018-03-04T17:27:42.867Z,11.34
2018-03-04T17:30:12.937Z,11.31
2018-03-04T17:32:42.698Z,11.29
2018-03-04T17:35:13.235Z,11.26
2018-03-04T17:37:41.817Z,11.22
2018-03-04T17:40:11.879Z,11.19
2018-03-04T17:42:40.260Z,11.17
2018-03-04T17:45:09.479Z,11.12
2018-03-04T17:47:41.986Z,11.12
2018-03-04T17:50:11.116Z,11.07
2018-03-04T17:52:39.494Z,11.07
2018-03-04T17:55:07.798Z,11.07
2018-03-04T17:57:36.103Z,11.09
2018-03-04T18:00:04.427Z,11.12
2018-03-04T18:02:33.497Z,11.13
2018-03-04T18:05:01.836Z,11.12
2018-03-04T18:07:30.143Z,11.13
2018-03-04T18:09:58.461Z,11.14
2018-03-04T18:12:26.777Z,11.13
2018-03-04T18:14:55.093Z,11.09
2018-03-04T18:17:23.413Z,11.06
2018-03-04T18:19:52.504Z,11.07
2018-03-04T18:22:21.602Z,11.08
2018-03-04T18:24:49.910Z,11.06
2018-03-04T18:27:18.253Z,11.03
2018-03-04T18:29:47.338Z,11.00
2018-03-04T18:32:15.885Z,10.99
2018-03-04T18:34:44.211Z,10.98
2018-03-04T18:37:12.499Z,10.97
2018-03-04T18:39:41.583Z,10.97
2018-03-04T18:42:09.907Z,10.98
2018-03-04T18:44:38.229Z,10.99
2018-03-04T18:47:06.536Z,10.98
2018-03-04T18:49:35.689Z,10.97
2018-03-04T18:52:04.026Z,10.92
2018-03-04T18:54:33.106Z,10.87
2018-03-04T18:57:01.489Z,10.83
2018-03-04T18:59:30.298Z,10.78
2018-03-04T19:01:58.623Z,10.73
2018-03-04T19:04:26.927Z,10.71
2018-03-04T19:06:55.248Z,10.68
2018-03-04T19:09:24.326Z,10.61
2018-03-04T19:11:52.643Z,10.54
2018-03-04T19:14:21.750Z,10.45
2018-03-04T19:16:50.080Z,10.36
2018-03-04T19:19:18.379Z,10.28
2018-03-04T19:21:48.197Z,10.22
2018-03-04T19:24:17.379Z,10.32
2018-03-04T19:26:45.741Z,10.20
2018-03-04T19:29:14.070Z,10.14
2018-03-04T19:31:43.148Z,10.12
2018-03-04T19:34:12.445Z,10.09
2018-03-04T19:36:42.270Z,10.05
2018-03-04T19:39:10.582Z,10.00
2018-03-04T19:41:39.721Z,9.93
2018-03-04T19:44:12.039Z,9.88
2018-03-04T19:46:45.189Z,9.85
2018-03-04T19:49:18.129Z,9.80
2018-03-04T19:51:46.944Z,9.76
2018-03-04T19:54:18.868Z,9.71
2018-03-04T19:56:47.817Z,9.66
2018-03-04T19:59:17.961Z,9.63
2018-03-04T20:01:48.913Z,9.58
2018-03-04T20:04:19.368Z,9.53
2018-03-04T20:06:48.908Z,9.51
2018-03-04T20:09:19.018Z,9.48
2018-03-04T20:11:48.745Z,9.45
2018-03-04T20:14:18.953Z,9.41
2018-03-04T20:16:48.963Z,9.40
2018-03-04T20:19:20.138Z,9.35
2018-03-04T20:21:48.525Z,9.35
2018-03-04T20:24:16.872Z,9.31
2018-03-04T20:26:45.207Z,9.29
2018-03-04T20:29:13.511Z,9.27
2018-03-04T20:31:42.632Z,9.25
2018-03-04T20:34:11.584Z,9.22
2018-03-04T20:36:39.885Z,9.18
2018-03-04T20:39:08.963Z,9.14
2018-03-04T20:41:37.310Z,9.12
2018-03-04T20:44:05.615Z,9.07
2018-03-04T20:46:33.934Z,9.05
2018-03-04T20:49:03.893Z,9.01
2018-03-04T20:51:32.187Z,8.96
2018-03-04T20:54:00.508Z,8.96
2018-03-04T20:56:29.583Z,8.92
2018-03-04T20:58:57.919Z,8.89
2018-03-04T21:01:26.236Z,8.88
2018-03-04T21:03:54.532Z,8.87
2018-03-04T21:06:22.836Z,8.84
2018-03-04T21:08:51.907Z,8.84
2018-03-04T21:11:20.205Z,8.84
2018-03-04T21:13:49.349Z,8.86
2018-03-04T21:16:18.374Z,8.83
2018-03-04T21:18:46.694Z,8.84
2018-03-04T21:21:15.068Z,8.80
2018-03-04T21:26:18.533Z,8.81
2018-03-04T21:28:46.843Z,8.78
2018-03-04T21:31:15.139Z,8.76
2018-03-04T21:33:43.468Z,8.76
2018-03-04T21:36:11.779Z,8.75
2018-03-04T21:38:40.095Z,8.76
2018-03-04T21:41:09.309Z,8.76
2018-03-04T21:43:37.710Z,8.74
2018-03-04T21:46:06.098Z,8.76
2018-03-04T21:48:34.394Z,8.78
2018-03-04T21:51:02.714Z,8.77
2018-03-04T21:53:31.796Z,8.74
2018-03-04T21:56:00.148Z,8.73
2018-03-04T21:58:28.514Z,8.74
2018-03-04T22:00:56.816Z,8.73
2018-03-04T22:03:25.141Z,8.75
2018-03-04T22:05:54.260Z,8.75
2018-03-04T22:08:22.593Z,8.74
2018-03-04T22:10:51.010Z,8.74
2018-03-04T22:13:20.084Z,8.75
2018-03-04T22:15:48.404Z,8.73
2018-03-04T22:18:16.736Z,8.72
2018-03-04T22:20:45.848Z,8.67
2018-03-04T22:23:14.946Z,8.64
2018-03-04T22:25:43.300Z,8.61
2018-03-04T22:28:11.618Z,8.59
2018-03-04T22:30:40.689Z,8.60
2018-03-04T22:33:09.130Z,8.59
2018-03-04T22:35:37.458Z,8.57
2018-03-04T22:38:05.795Z,8.56
2018-03-04T22:40:34.100Z,8.54
2018-03-04T22:43:02.419Z,8.48
2018-03-04T22:45:31.502Z,8.43
2018-03-04T22:48:00.580Z,8.38
2018-03-04T22:50:28.890Z,8.31
2018-03-04T22:52:57.982Z,8.25
2018-03-04T22:55:26.289Z,8.22
2018-03-04T22:57:55.395Z,8.15
2018-03-04T23:00:23.730Z,8.10
2018-03-04T23:02:52.089Z,8.04
2018-03-04T23:05:21.126Z,8.01
2018-03-04T23:07:49.456Z,7.94
2018-03-04T23:10:17.775Z,7.87
2018-03-04T23:12:46.100Z,7.84
2018-03-04T23:15:14.426Z,7.84
2018-03-04T23:17:43.069Z,7.82
2018-03-04T23:20:11.400Z,7.82
2018-03-04T23:22:39.720Z,7.77
2018-03-04T23:25:08.821Z,7.72
2018-03-04T23:27:37.923Z,7.71
2018-03-04T23:30:06.250Z,7.72
2018-03-04T23:32:34.554Z,7.68
2018-03-04T23:35:02.868Z,7.67
2018-03-04T23:37:31.191Z,7.62
2018-03-04T23:39:59.635Z,7.60
2018-03-04T23:42:28.653Z,7.58
2018-03-04T23:44:57.005Z,7.56
2018-03-04T23:47:26.077Z,7.54
2018-03-04T23:49:54.393Z,7.54
2018-03-04T23:52:22.730Z,7.54
2018-03-04T23:54:51.014Z,7.54
2018-03-04T23:57:19.355Z,7.54
2018-03-04T23:59:47.675Z,7.54
